Time;durP1;ratioP1;P1;durP2;ratioP2;P2;SDS_P1;SDS_P2;PMS_P1;PMS_P2;Temp;Humidity;BMP_temperature;BMP_pressure;BME280_temperature;BME280_humidity;BME280_pressure;Samples;Min_cycle;Max_cycle;Signal;HPM_P1;HPM_P2
2021/09/30 00:00:51;;;;;;;8.93;3.30;;;;;;;10.91;nan;101140.25;5053556;28;20178;-72
2021/09/30 00:03:16;;;;;;;2.50;1.97;;;;;;;10.99;nan;101145.22;5052790;28;20214;-73
2021/09/30 00:05:43;;;;;;;3.97;2.57;;;;;;;10.92;nan;101126.81;5035057;28;20190;-72
2021/09/30 00:08:08;;;;;;;5.87;2.03;;;;;;;11.03;nan;101133.44;5052799;28;20186;-73
2021/09/30 00:10:34;;;;;;;6.97;2.10;;;;;;;10.74;nan;101132.19;5035039;28;20694;-72
2021/09/30 00:13:12;;;;;;;3.33;2.10;;;;;;;10.80;nan;101138.13;5051433;28;20175;-72
2021/09/30 00:18:24;;;;;;;4.80;2.10;;;;;;;10.90;nan;101127.84;5053060;28;20621;-73
2021/09/30 00:45:49;;;;;;;4.10;1.87;;;;;;;10.93;nan;101143.72;4997825;28;20203;-72
2021/09/30 00:48:56;;;;;;;4.53;1.33;;;;;;;10.79;nan;101147.06;5019127;28;20297;-73
2021/09/30 00:53:44;;;;;;;5.53;1.73;;;;;;;10.89;nan;101158.16;5059140;28;20707;-73
2021/09/30 01:33:53;;;;;;;6.30;1.43;;;;;;;10.71;nan;101143.00;5043627;28;20176;-72
2021/09/30 01:52:00;;;;;;;2.63;0.90;;;;;;;10.56;nan;101147.28;5043402;28;20240;-72
2021/09/30 02:25:11;;;;;;;2.70;1.17;;;;;;;10.98;nan;101144.34;5037556;28;20654;-73
2021/09/30 02:28:15;;;;;;;2.33;1.17;;;;;;;11.03;nan;101158.31;5040273;28;20181;-72
2021/09/30 02:58:30;;;;;;;4.73;1.33;;;;;;;10.92;nan;101169.53;5039318;28;20228;-72
2021/09/30 03:00:57;;;;;;;5.63;1.20;;;;;;;11.13;nan;101172.94;5038386;28;20174;-71
2021/09/30 03:03:25;;;;;;;3.57;1.00;;;;;;;11.13;nan;101180.97;5062489;23;20219;-66
2021/09/30 03:05:54;;;;;;;3.67;1.37;;;;;;;11.16;nan;101174.63;5055667;28;20263;-67
2021/09/30 03:08:27;;;;;;;5.63;1.70;;;;;;;11.13;nan;101166.75;5075514;28;20174;-68
2021/09/30 03:10:54;;;;;;;3.23;1.40;;;;;;;11.14;nan;101174.69;5056790;28;20181;-68
2021/09/30 03:13:21;;;;;;;4.70;1.30;;;;;;;11.11;nan;101174.84;5040003;28;20231;-68
2021/09/30 03:15:54;;;;;;;5.27;1.27;;;;;;;11.06;nan;101173.34;5056924;28;20181;-68
2021/09/30 03:23:28;;;;;;;2.27;1.33;;;;;;;11.09;nan;101191.88;5061714;28;20155;-68
2021/09/30 03:25:54;;;;;;;3.47;1.47;;;;;;;11.08;nan;101187.47;5073966;28;20668;-68
2021/09/30 03:28:23;;;;;;;2.70;1.20;;;;;;;11.12;nan;101194.41;5056150;28;20189;-68
2021/09/30 03:30:49;;;;;;;4.37;1.60;;;;;;;11.13;nan;101180.09;5056494;28;20184;-68
2021/09/30 03:33:15;;;;;;;5.63;1.30;;;;;;;11.32;nan;101191.63;5039761;28;20174;-68
2021/09/30 03:35:40;;;;;;;3.40;1.63;;;;;;;11.42;nan;101195.53;5062781;28;20194;-67
2021/09/30 03:38:07;;;;;;;6.20;1.63;;;;;;;11.42;nan;101179.50;5057919;28;20648;-68
2021/09/30 03:40:34;;;;;;;3.03;1.23;;;;;;;11.62;nan;101191.00;5056334;28;20708;-67
2021/09/30 03:43:01;;;;;;;4.37;1.70;;;;;;;11.62;nan;101182.97;5056574;28;20193;-68
2021/09/30 03:45:26;;;;;;;4.83;2.00;;;;;;;11.28;nan;101185.56;5073933;28;20198;-68
2021/09/30 03:47:52;;;;;;;4.40;1.60;;;;;;;11.38;nan;101191.28;5056176;28;20236;-68
2021/09/30 03:50:21;;;;;;;5.73;1.80;;;;;;;11.35;nan;101188.78;5074161;28;20179;-69
2021/09/30 03:52:58;;;;;;;3.33;1.40;;;;;;;11.37;nan;101191.38;5056520;28;20197;-70
2021/09/30 03:56:00;;;;;;;3.43;1.80;;;;;;;11.38;nan;101198.44;5073763;28;20560;-69
2021/09/30 04:00:53;;;;;;;3.10;1.63;;;;;;;11.14;nan;101195.19;5073550;28;20165;-69
2021/09/30 04:03:19;;;;;;;3.87;1.30;;;;;;;11.02;nan;101193.13;5073686;28;20171;-69
2021/09/30 04:05:44;;;;;;;3.00;1.50;;;;;;;11.11;nan;101192.66;5073828;28;20213;-69
2021/09/30 04:08:09;;;;;;;4.40;1.70;;;;;;;11.14;nan;101205.88;5074073;28;20228;-70
2021/09/30 04:10:34;;;;;;;3.70;2.13;;;;;;;11.00;nan;101203.88;5055513;28;20177;-68
2021/09/30 04:13:00;;;;;;;6.10;1.63;;;;;;;11.07;nan;101204.44;5073297;28;20177;-69
2021/09/30 04:15:25;;;;;;;2.73;1.83;;;;;;;10.88;nan;101193.81;5055223;28;20212;-69
2021/09/30 04:17:50;;;;;;;4.60;2.03;;;;;;;10.66;nan;101207.31;5073298;28;20174;-69
2021/09/30 04:20:17;;;;;;;3.03;2.20;;;;;;;10.79;nan;101211.16;5074023;28;20170;-69
2021/09/30 04:22:43;;;;;;;6.07;2.63;;;;;;;10.41;nan;101231.63;5074151;28;20182;-69
2021/09/30 04:25:09;;;;;;;5.53;3.13;;;;;;;10.74;nan;101231.84;5073285;28;20205;-69
2021/09/30 04:27:34;;;;;;;5.17;3.23;;;;;;;10.18;nan;101229.97;5073573;28;20196;-68
2021/09/30 04:29:59;;;;;;;7.90;3.60;;;;;;;10.53;nan;101259.53;5073382;28;20638;-69
2021/09/30 04:32:25;;;;;;;7.43;3.97;;;;;;;10.42;nan;101253.84;5073347;28;20178;-69
2021/09/30 04:34:50;;;;;;;7.40;3.60;;;;;;;10.41;nan;101281.47;5073490;28;20230;-69
2021/09/30 04:37:16;;;;;;;9.73;4.13;;;;;;;10.56;nan;101262.94;5073772;28;20173;-69
2021/09/30 04:39:41;;;;;;;8.87;4.50;;;;;;;10.54;nan;101285.28;5055078;28;20188;-68
2021/09/30 04:42:06;;;;;;;11.87;5.43;;;;;;;10.52;nan;101268.47;5073141;28;20177;-68
2021/09/30 04:44:32;;;;;;;11.83;5.37;;;;;;;10.72;nan;101268.41;5073022;28;20190;-68
2021/09/30 04:46:57;;;;;;;10.03;5.10;;;;;;;10.53;nan;101262.22;5074035;28;20271;-68
2021/09/30 04:49:22;;;;;;;10.07;5.40;;;;;;;10.85;nan;101263.38;5073068;28;20170;-69
2021/09/30 04:51:48;;;;;;;10.77;4.80;;;;;;;10.73;nan;101256.78;5073153;28;20184;-68
2021/09/30 04:54:13;;;;;;;6.17;5.07;;;;;;;10.75;nan;101264.72;5055057;28;20284;-68
2021/09/30 04:56:38;;;;;;;8.90;5.63;;;;;;;10.90;nan;101266.69;5073488;28;20181;-70
2021/09/30 04:59:04;;;;;;;11.80;5.60;;;;;;;10.74;nan;101274.53;5055410;28;20184;-70
2021/09/30 05:01:30;;;;;;;10.30;5.47;;;;;;;10.84;nan;101277.69;5073211;28;20178;-70
2021/09/30 05:03:55;;;;;;;9.53;5.23;;;;;;;10.81;nan;101278.69;5073033;28;20299;-70
2021/09/30 05:06:21;;;;;;;14.13;5.80;;;;;;;11.04;nan;101274.03;5074535;28;20565;-70
2021/09/30 05:08:49;;;;;;;10.17;5.37;;;;;;;11.06;nan;101281.03;5056597;28;20231;-70
2021/09/30 05:11:15;;;;;;;12.93;5.70;;;;;;;11.09;nan;101288.03;5073711;28;20208;-71
2021/09/30 05:13:43;;;;;;;10.17;5.20;;;;;;;11.15;nan;101282.41;5072653;28;20197;-70
2021/09/30 05:16:14;;;;;;;11.17;4.83;;;;;;;11.09;nan;101277.38;5055415;28;20649;-69
2021/09/30 05:18:44;;;;;;;9.67;5.80;;;;;;;10.90;nan;101298.75;5072738;28;20177;-70
2021/09/30 05:21:09;;;;;;;11.17;5.10;;;;;;;10.95;nan;101331.44;5073034;28;20162;-72
2021/09/30 05:23:35;;;;;;;10.63;5.37;;;;;;;11.24;nan;101330.94;5072521;28;20247;-70
2021/09/30 05:26:00;;;;;;;10.30;5.27;;;;;;;11.37;nan;101316.97;5055687;28;20808;-71
2021/09/30 05:28:25;;;;;;;10.63;4.93;;;;;;;11.27;nan;101308.56;5076365;28;20175;-71
2021/09/30 05:30:50;;;;;;;8.00;4.60;;;;;;;11.12;nan;101309.28;5076355;28;20213;-69
2021/09/30 05:33:16;;;;;;;11.50;5.17;;;;;;;11.15;nan;101311.78;5076661;28;20181;-70
2021/09/30 05:35:41;;;;;;;11.03;5.33;;;;;;;10.94;nan;101306.53;5076176;28;20162;-70
2021/09/30 05:38:06;;;;;;;6.03;4.03;;;;;;;11.02;nan;101322.19;5076224;28;20533;-69
2021/09/30 05:40:32;;;;;;;11.67;4.70;;;;;;;10.98;nan;101328.63;5058450;28;20200;-70
2021/09/30 05:42:59;;;;;;;9.87;3.67;;;;;;;10.83;nan;101319.53;5076945;28;20170;-70
2021/09/30 05:45:25;;;;;;;10.50;4.33;;;;;;;11.07;nan;101327.31;5075815;28;20342;-69
2021/09/30 05:47:50;;;;;;;13.60;4.13;;;;;;;10.86;nan;101313.19;5076200;28;20639;-69
2021/09/30 05:50:16;;;;;;;9.60;3.73;;;;;;;10.96;nan;101317.16;5076212;28;20212;-69
2021/09/30 05:52:41;;;;;;;10.87;3.87;;;;;;;11.08;nan;101313.03;5075685;28;20636;-70
2021/09/30 05:55:08;;;;;;;9.57;3.70;;;;;;;10.97;nan;101316.22;5058414;28;20256;-67
2021/09/30 05:57:34;;;;;;;11.70;3.57;;;;;;;10.98;nan;101323.28;5075826;28;20189;-68
2021/09/30 06:00:11;;;;;;;11.13;3.80;;;;;;;11.04;nan;101317.66;5076088;28;20258;-68
2021/09/30 06:10:51;;;;;;;14.10;3.87;;;;;;;11.02;nan;101345.38;5076463;28;20168;-68
2021/09/30 06:13:27;;;;;;;15.20;3.57;;;;;;;11.18;nan;101336.59;5075634;28;20283;-69
2021/09/30 06:15:52;;;;;;;11.57;3.30;;;;;;;11.02;nan;101354.25;5076372;28;20158;-70
2021/09/30 06:18:18;;;;;;;5.93;2.67;;;;;;;10.81;nan;101350.78;5076393;28;20746;-69
2021/09/30 06:20:43;;;;;;;7.67;2.90;;;;;;;11.24;nan;101356.81;5075636;28;20265;-69
2021/09/30 06:23:08;;;;;;;12.10;3.60;;;;;;;11.13;nan;101359.09;5075624;28;20186;-68
2021/09/30 06:25:34;;;;;;;10.23;3.07;;;;;;;11.15;nan;101375.91;5075431;28;20210;-68
2021/09/30 06:27:59;;;;;;;10.07;2.90;;;;;;;11.13;nan;101356.41;5057441;28;20317;-68
2021/09/30 06:30:29;;;;;;;8.20;3.20;;;;;;;11.10;nan;101367.25;5057465;28;20206;-68
2021/09/30 06:32:55;;;;;;;10.60;3.10;;;;;;;11.04;nan;101348.84;5079360;28;20252;-68
2021/09/30 06:35:21;;;;;;;10.50;3.40;;;;;;;10.91;nan;101359.22;5076469;28;20671;-67
2021/09/30 06:37:46;;;;;;;4.73;2.33;;;;;;;10.63;nan;101367.63;5074662;28;20190;-67
2021/09/30 06:40:12;;;;;;;7.03;2.83;;;;;;;10.67;nan;101360.34;5075856;28;20182;-67
2021/09/30 06:42:37;;;;;;;6.20;2.93;;;;;;;10.89;nan;101370.00;5075946;28;20190;-67
2021/09/30 06:45:03;;;;;;;9.40;2.93;;;;;;;10.96;nan;101368.75;5075140;28;20201;-67
2021/09/30 06:47:35;;;;;;;11.33;2.60;;;;;;;10.80;nan;101373.09;5074862;28;20174;-68
2021/09/30 06:50:00;;;;;;;10.63;2.50;;;;;;;10.93;nan;101368.91;5075007;28;20619;-68
2021/09/30 06:52:25;;;;;;;9.47;2.27;;;;;;;10.78;nan;101366.94;5075058;28;20171;-68
2021/09/30 06:54:50;;;;;;;10.57;2.50;;;;;;;10.85;nan;101387.09;5075111;28;20198;-68
2021/09/30 06:57:16;;;;;;;7.20;2.30;;;;;;;10.53;nan;101377.84;5075097;28;20169;-68
2021/09/30 06:59:41;;;;;;;7.70;2.60;;;;;;;10.96;nan;101398.16;5077394;28;20636;-68
2021/09/30 07:02:09;;;;;;;10.77;2.60;;;;;;;10.87;nan;101389.69;5078759;28;20184;-70
2021/09/30 07:04:34;;;;;;;11.53;3.33;;;;;;;10.89;nan;101404.72;5041004;28;20216;-68
2021/09/30 07:07:00;;;;;;;11.47;2.63;;;;;;;10.67;nan;101403.91;5057086;28;20194;-68
2021/09/30 07:09:25;;;;;;;8.60;2.77;;;;;;;10.61;nan;101398.84;5074719;28;20175;-68
2021/09/30 07:11:50;;;;;;;9.37;2.63;;;;;;;10.66;nan;101410.19;5075832;28;20184;-69
2021/09/30 07:14:16;;;;;;;13.73;3.10;;;;;;;10.82;nan;101431.75;5041383;28;20202;-68
2021/09/30 07:16:41;;;;;;;8.30;2.97;;;;;;;10.56;nan;101416.88;5076213;28;20221;-68
2021/09/30 07:19:07;;;;;;;8.00;2.87;;;;;;;10.58;nan;101415.00;5075647;28;20173;-68
2021/09/30 07:21:33;;;;;;;9.57;2.47;;;;;;;10.66;nan;101412.88;5075453;28;20659;-68
2021/09/30 07:23:59;;;;;;;13.50;3.20;;;;;;;10.73;nan;101430.34;5058015;28;20222;-68
2021/09/30 07:26:24;;;;;;;9.33;2.50;;;;;;;10.74;nan;101425.88;5075070;28;20290;-68
2021/09/30 07:28:51;;;;;;;8.90;2.83;;;;;;;10.69;nan;101406.50;5074455;28;20175;-67
2021/09/30 07:31:16;;;;;;;6.17;2.57;;;;;;;10.91;nan;101412.66;5074694;28;20698;-68
2021/09/30 07:33:42;;;;;;;6.13;2.20;;;;;;;11.13;nan;101416.06;5074893;28;20297;-68
2021/09/30 07:36:07;;;;;;;7.23;2.03;;;;;;;11.07;nan;101402.13;5056564;28;20687;-67
2021/09/30 07:38:32;;;;;;;10.17;2.30;;;;;;;11.18;nan;101389.16;5056026;28;20175;-67
2021/09/30 07:40:58;;;;;;;7.57;2.40;;;;;;;11.47;nan;101380.59;5074322;28;20178;-67
2021/09/30 07:43:23;;;;;;;5.00;1.90;;;;;;;11.55;nan;101378.47;5074217;28;20177;-68
2021/09/30 07:45:49;;;;;;;8.10;1.57;;;;;;;11.67;nan;101374.31;5074340;28;20702;-68
2021/09/30 07:48:14;;;;;;;7.73;1.60;;;;;;;11.63;nan;101391.44;5056109;28;20178;-68
2021/09/30 07:50:40;;;;;;;5.90;1.77;;;;;;;12.06;nan;101400.06;5073862;28;20185;-68
2021/09/30 07:53:05;;;;;;;7.50;1.60;;;;;;;12.44;nan;101390.94;5074198;28;20170;-68
2021/09/30 07:55:30;;;;;;;12.67;2.43;;;;;;;12.55;nan;101387.69;5074275;28;20198;-68
2021/09/30 07:57:56;;;;;;;5.23;1.57;;;;;;;12.94;nan;101405.28;5056245;28;20526;-68
2021/09/30 08:00:21;;;;;;;3.33;1.43;;;;;;;12.84;nan;101389.72;5074074;28;20177;-68
2021/09/30 08:02:46;;;;;;;5.07;1.40;;;;;;;12.72;nan;101385.03;5055879;28;20171;-68
2021/09/30 08:05:13;;;;;;;5.10;1.33;;;;;;;12.98;nan;101386.28;5073590;28;20242;-68
2021/09/30 08:07:38;;;;;;;4.87;1.33;;;;;;;12.97;nan;101381.00;5056272;28;20571;-70
2021/09/30 08:10:05;;;;;;;8.10;1.60;;;;;;;13.31;nan;101369.34;5074035;28;20236;-68
2021/09/30 08:12:30;;;;;;;6.20;2.57;;;;;;;13.11;nan;101365.06;5055865;28;20190;-68
2021/09/30 08:14:56;;;;;;;2.77;1.00;;;;;;;13.16;nan;101384.44;5074042;28;20198;-67
2021/09/30 08:17:21;;;;;;;6.57;1.77;;;;;;;13.19;nan;101370.03;5074349;28;20775;-68
2021/09/30 08:19:46;;;;;;;8.13;1.57;;;;;;;13.27;nan;101382.03;5073974;28;20633;-67
2021/09/30 08:22:11;;;;;;;5.60;1.40;;;;;;;13.16;nan;101365.66;5073703;28;20185;-69
2021/09/30 08:24:37;;;;;;;4.23;1.27;;;;;;;13.04;nan;101390.47;5073550;28;20286;-68
2021/09/30 08:27:02;;;;;;;6.07;1.30;;;;;;;13.29;nan;101366.75;5073593;28;20293;-68
2021/09/30 08:29:28;;;;;;;7.83;1.30;;;;;;;13.75;nan;101370.38;5055318;28;20183;-68
2021/09/30 08:31:53;;;;;;;6.57;1.60;;;;;;;13.23;nan;101371.59;5056015;28;20202;-67
2021/09/30 08:34:19;;;;;;;7.10;1.40;;;;;;;13.60;nan;101391.84;5073853;28;20195;-68
2021/09/30 08:36:44;;;;;;;5.47;1.43;;;;;;;13.78;nan;101390.81;5074158;28;20553;-68
2021/09/30 08:39:10;;;;;;;3.17;1.50;;;;;;;13.92;nan;101390.88;5073209;28;20185;-68
2021/09/30 08:41:36;;;;;;;6.47;1.07;;;;;;;13.68;nan;101389.56;5055589;28;20171;-69
2021/09/30 08:44:04;;;;;;;4.80;1.10;;;;;;;13.40;nan;101387.63;5073578;28;20199;-69
2021/09/30 08:46:30;;;;;;;8.60;1.30;;;;;;;13.71;nan;101397.44;5056423;28;20209;-68
2021/09/30 08:48:56;;;;;;;4.43;1.33;;;;;;;13.85;nan;101397.53;5055512;28;20179;-68
2021/09/30 08:51:22;;;;;;;6.90;1.00;;;;;;;13.72;nan;101385.75;5073456;28;20667;-68
2021/09/30 08:53:47;;;;;;;4.57;1.10;;;;;;;13.98;nan;101386.94;5073295;28;20198;-69
2021/09/30 08:56:13;;;;;;;5.17;1.30;;;;;;;13.54;nan;101387.69;5073378;28;20529;-68
2021/09/30 08:58:38;;;;;;;6.83;1.20;;;;;;;13.19;nan;101370.88;5073836;28;20174;-68
2021/09/30 09:01:06;;;;;;;5.03;1.50;;;;;;;13.24;nan;101384.91;5076788;28;20228;-68
2021/09/30 09:03:38;;;;;;;2.40;1.00;;;;;;;13.32;nan;101417.50;5077200;28;20202;-68
2021/09/30 09:06:05;;;;;;;5.97;1.67;;;;;;;13.35;nan;101401.25;5102498;23;20227;-73
2021/09/30 09:08:30;;;;;;;7.10;1.40;;;;;;;13.07;nan;101363.50;5059201;28;20276;-71
2021/09/30 09:10:57;;;;;;;7.30;1.50;;;;;;;13.43;nan;101404.41;5042392;28;20273;-71
2021/09/30 09:13:22;;;;;;;3.93;1.27;;;;;;;13.46;nan;101408.72;5076870;28;20209;-72
2021/09/30 09:15:54;;;;;;;7.30;1.73;;;;;;;13.77;nan;101405.19;5038819;28;20227;-72
2021/09/30 09:18:33;;;;;;;4.87;1.10;;;;;;;13.45;nan;101402.50;5039766;28;20591;-69
2021/09/30 09:21:01;;;;;;;6.17;1.30;;;;;;;13.59;nan;101414.25;5057974;28;20529;-71
2021/09/30 09:23:27;;;;;;;4.70;1.20;;;;;;;14.08;nan;101405.09;5056456;28;20207;-71
2021/09/30 09:26:29;;;;;;;6.47;1.10;;;;;;;13.93;nan;101402.47;5038694;28;20269;-71
2021/09/30 09:29:13;;;;;;;6.80;1.47;;;;;;;13.95;nan;101417.53;5031309;28;20195;-72
2021/09/30 09:31:45;;;;;;;6.87;1.27;;;;;;;13.84;nan;101417.28;5039170;28;20159;-73
2021/09/30 09:34:22;;;;;;;5.73;1.40;;;;;;;13.99;nan;101423.56;5038371;28;20214;-72
2021/09/30 09:36:50;;;;;;;6.33;1.10;;;;;;;14.46;nan;101418.13;5056073;28;20529;-72
2021/09/30 09:39:17;;;;;;;5.37;1.20;;;;;;;14.12;nan;101421.03;5038248;28;20179;-72
2021/09/30 09:41:42;;;;;;;7.97;1.40;;;;;;;14.19;nan;101417.06;5038400;28;20661;-72
2021/09/30 09:44:08;;;;;;;3.50;1.20;;;;;;;13.99;nan;101439.69;5038224;28;20176;-74
2021/09/30 09:46:36;;;;;;;4.70;1.40;;;;;;;14.06;nan;101425.81;5038260;28;20195;-73
2021/09/30 09:49:07;;;;;;;8.20;1.43;;;;;;;14.39;nan;101433.72;5038294;28;20203;-73
2021/09/30 09:51:34;;;;;;;9.27;1.50;;;;;;;14.50;nan;101435.81;5056039;28;20174;-73
2021/09/30 09:54:00;;;;;;;4.57;1.10;;;;;;;14.55;nan;101417.59;5054992;28;20189;-73
2021/09/30 09:56:25;;;;;;;6.63;1.47;;;;;;;14.30;nan;101419.97;5038450;28;20182;-73
2021/09/30 09:58:55;;;;;;;2.87;1.13;;;;;;;14.68;nan;101425.75;5037922;28;20172;-73
2021/09/30 10:01:26;;;;;;;8.67;1.33;;;;;;;14.89;nan;101439.72;5038083;28;20656;-73
2021/09/30 10:03:58;;;;;;;5.93;1.30;;;;;;;14.76;nan;101428.84;5038571;28;20652;-72
2021/09/30 10:06:23;;;;;;;4.90;1.27;;;;;;;15.30;nan;101454.16;5037621;28;20208;-72
2021/09/30 10:08:49;;;;;;;4.20;1.07;;;;;;;15.47;nan;101436.06;5056571;28;20194;-74
2021/09/30 10:11:14;;;;;;;5.47;1.43;;;;;;;15.04;nan;101416.41;5055148;28;20176;-74
2021/09/30 10:13:40;;;;;;;5.27;1.50;;;;;;;14.80;nan;101425.00;5037838;28;20179;-73
2021/09/30 10:16:06;;;;;;;6.90;1.83;;;;;;;15.07;nan;101413.53;5054779;28;20187;-71
2021/09/30 10:18:31;;;;;;;7.50;2.10;;;;;;;15.14;nan;101426.47;5037963;28;20172;-71
2021/09/30 10:20:58;;;;;;;4.27;1.00;;;;;;;14.74;nan;101416.47;5038035;28;20263;-72
2021/09/30 10:23:35;;;;;;;4.57;1.30;;;;;;;14.89;nan;101437.91;5054511;28;20203;-72
2021/09/30 10:26:12;;;;;;;7.40;1.23;;;;;;;14.68;nan;101439.19;5021134;28;20577;-72
2021/09/30 10:28:40;;;;;;;5.80;1.20;;;;;;;14.75;nan;101442.38;5054239;28;20167;-72
2021/09/30 10:31:21;;;;;;;4.80;1.10;;;;;;;14.64;nan;101432.28;5037661;28;20175;-73
2021/09/30 10:33:46;;;;;;;8.70;1.30;;;;;;;14.67;nan;101432.09;5038376;28;20159;-75
2021/09/30 10:36:45;;;;;;;6.67;1.33;;;;;;;14.49;nan;101427.81;5038147;28;20200;-75
2021/09/30 10:39:15;;;;;;;5.57;1.10;;;;;;;13.91;nan;101458.91;5037901;28;20289;-73
2021/09/30 10:41:40;;;;;;;3.73;1.00;;;;;;;14.88;nan;101433.50;5053946;28;20186;-73
2021/09/30 10:44:18;;;;;;;5.40;1.20;;;;;;;15.23;nan;101446.53;5037623;28;20175;-75
2021/09/30 10:46:45;;;;;;;6.33;1.43;;;;;;;15.32;nan;101438.78;5053796;28;20184;-72
2021/09/30 10:49:33;;;;;;;7.40;1.40;;;;;;;15.38;nan;101485.94;5037270;28;20179;-74
2021/09/30 10:52:28;;;;;;;4.37;0.90;;;;;;;15.78;nan;101435.00;5055449;28;20168;-72
2021/09/30 10:55:11;;;;;;;3.60;1.20;;;;;;;15.84;nan;101445.38;5020477;28;20196;-73
2021/09/30 10:57:44;;;;;;;2.40;0.80;;;;;;;15.90;nan;101450.34;5054692;28;20156;-73
2021/09/30 11:00:11;;;;;;;6.27;1.13;;;;;;;15.09;nan;101433.09;5037036;28;20164;-73
2021/09/30 11:03:01;;;;;;;4.27;0.90;;;;;;;15.17;nan;101426.28;5036845;28;20229;-73
2021/09/30 11:05:31;;;;;;;4.67;1.10;;;;;;;15.18;nan;101435.22;5052945;28;20242;-72
2021/09/30 11:08:24;;;;;;;7.90;1.40;;;;;;;15.31;nan;101439.75;5053190;28;20271;-74
2021/09/30 11:11:08;;;;;;;4.17;1.17;;;;;;;15.31;nan;101450.50;5036693;28;20172;-72
2021/09/30 11:13:38;;;;;;;3.37;1.27;;;;;;;15.50;nan;101443.94;5054542;28;20242;-74
2021/09/30 11:16:12;;;;;;;2.63;1.07;;;;;;;15.38;nan;101437.53;5054201;28;20557;-73
2021/09/30 11:18:55;;;;;;;3.83;1.10;;;;;;;15.52;nan;101440.19;5052940;28;20293;-73
2021/09/30 11:21:32;;;;;;;3.67;1.03;;;;;;;15.63;nan;101444.94;5054407;28;20614;-74
2021/09/30 11:24:21;;;;;;;6.33;1.17;;;;;;;15.65;nan;101434.94;5055269;28;20634;-73
2021/09/30 11:27:04;;;;;;;4.10;1.27;;;;;;;16.03;nan;101453.13;5052781;28;20558;-71
2021/09/30 11:29:29;;;;;;;7.90;1.27;;;;;;;15.71;nan;101452.50;5036349;28;20264;-72
2021/09/30 11:31:58;;;;;;;3.77;1.33;;;;;;;15.68;nan;101448.19;5054631;28;20176;-73
2021/09/30 11:34:31;;;;;;;4.50;1.00;;;;;;;15.69;nan;101449.91;5053939;28;20210;-75
2021/09/30 11:37:12;;;;;;;10.43;1.30;;;;;;;15.91;nan;101439.47;5037575;28;20683;-73
2021/09/30 11:39:37;;;;;;;6.03;1.90;;;;;;;16.23;nan;101458.03;5044635;28;20156;-74
2021/09/30 11:42:04;;;;;;;4.37;1.40;;;;;;;15.48;nan;101440.50;5055930;28;20175;-73
2021/09/30 11:44:29;;;;;;;5.03;1.20;;;;;;;15.52;nan;101433.94;5035980;28;20230;-72
2021/09/30 11:46:57;;;;;;;6.10;1.60;;;;;;;15.88;nan;101460.34;5036433;28;20226;-72
2021/09/30 11:49:22;;;;;;;5.17;1.30;;;;;;;15.52;nan;101461.72;5052725;28;20229;-74
2021/09/30 11:51:55;;;;;;;4.57;1.60;;;;;;;15.59;nan;101463.06;5036048;28;20532;-73
2021/09/30 11:54:23;;;;;;;3.27;1.10;;;;;;;15.57;nan;101461.41;5037017;28;20191;-75
2021/09/30 11:56:54;;;;;;;6.73;1.83;;;;;;;15.86;nan;101457.75;5037503;28;20176;-74
2021/09/30 11:59:23;;;;;;;6.90;1.40;;;;;;;15.66;nan;101460.88;5053777;28;20212;-73
2021/09/30 12:01:53;;;;;;;2.60;0.70;;;;;;;16.18;nan;101462.84;5037919;28;20262;-73
2021/09/30 12:07:29;;;;;;;5.20;0.90;;;;;;;16.90;nan;101474.19;5031922;28;20243;-73
2021/09/30 12:09:57;;;;;;;5.73;1.30;;;;;;;17.45;nan;101485.50;5019573;28;20184;-72
2021/09/30 12:12:30;;;;;;;4.53;1.10;;;;;;;17.32;nan;101457.69;5054055;28;20175;-74
2021/09/30 12:14:57;;;;;;;5.97;1.30;;;;;;;16.75;nan;101451.84;5036175;28;20714;-72
2021/09/30 12:17:23;;;;;;;7.07;1.57;;;;;;;16.52;nan;101451.53;5036251;28;20641;-72
2021/09/30 12:19:50;;;;;;;4.33;1.23;;;;;;;17.07;nan;101453.13;5019327;28;20176;-73
2021/09/30 12:22:33;;;;;;;2.57;0.90;;;;;;;17.21;nan;101467.50;5039567;28;20175;-73
2021/09/30 12:25:03;;;;;;;2.80;1.20;;;;;;;16.83;nan;101444.09;5035704;28;20214;-73
2021/09/30 12:27:34;;;;;;;2.37;0.77;;;;;;;16.98;nan;101452.94;5036248;28;20648;-73
2021/09/30 12:30:09;;;;;;;6.37;1.63;;;;;;;16.97;nan;101443.97;5035863;28;20625;-76
2021/09/30 12:32:38;;;;;;;7.30;1.50;;;;;;;16.71;nan;101440.38;5037532;28;20233;-73
2021/09/30 12:35:28;;;;;;;6.10;1.03;;;;;;;16.82;nan;101462.09;5036646;28;20210;-73
2021/09/30 12:38:04;;;;;;;2.37;0.83;;;;;;;17.78;nan;101454.38;5037962;28;20180;-72
2021/09/30 12:40:40;;;;;;;5.40;1.00;;;;;;;20.16;nan;101465.50;5054447;28;20155;-73
2021/09/30 12:43:12;;;;;;;3.83;1.20;;;;;;;20.19;nan;101454.41;5037620;28;20178;-71
2021/09/30 12:45:50;;;;;;;4.00;1.00;;;;;;;22.61;nan;101443.72;5053774;28;20553;-74
2021/09/30 12:48:22;;;;;;;3.60;1.17;;;;;;;23.35;nan;101427.53;5039990;28;20191;-72
2021/09/30 12:51:07;;;;;;;6.33;1.20;;;;;;;21.66;nan;101374.66;5038725;28;20626;-72
2021/09/30 12:53:48;;;;;;;6.27;1.30;;;;;;;21.71;nan;101396.84;5055544;28;20573;-72
2021/09/30 12:56:16;;;;;;;3.73;1.37;;;;;;;22.84;nan;101410.78;5055002;28;20265;-73
2021/09/30 12:58:45;;;;;;;3.20;0.90;;;;;;;22.18;nan;101392.50;5056859;28;20171;-72
2021/09/30 13:01:36;;;;;;;7.00;1.40;;;;;;;23.12;nan;101415.31;5055256;28;20172;-73
2021/09/30 13:04:02;;;;;;;3.70;0.97;;;;;;;22.44;nan;101398.22;5054939;28;20701;-75
2021/09/30 13:06:28;;;;;;;8.07;1.37;;;;;;;23.97;nan;101420.50;5054942;28;20693;-73
2021/09/30 13:08:53;;;;;;;6.30;1.43;;;;;;;24.39;nan;101424.53;5038086;28;20179;-71
2021/09/30 13:11:35;;;;;;;4.90;1.57;;;;;;;23.81;nan;101414.88;5038682;28;20179;-73
2021/09/30 13:14:23;;;;;;;4.53;1.00;;;;;;;23.45;nan;101392.09;5038525;28;20175;-75
2021/09/30 13:16:50;;;;;;;3.80;1.20;;;;;;;24.39;nan;101422.66;5037238;28;20164;-72
2021/09/30 13:19:16;;;;;;;3.40;1.27;;;;;;;23.95;nan;101394.41;5055789;28;20225;-74
2021/09/30 13:22:03;;;;;;;2.33;1.07;;;;;;;24.06;nan;101404.22;5053661;28;20263;-73
2021/09/30 13:24:29;;;;;;;4.57;0.90;;;;;;;23.91;nan;101384.81;5036889;28;20192;-72
2021/09/30 13:26:54;;;;;;;4.30;1.30;;;;;;;24.58;nan;101411.56;5053076;28;20222;-73
2021/09/30 13:29:19;;;;;;;4.23;1.13;;;;;;;23.85;nan;101386.31;5053472;28;20317;-72
2021/09/30 13:31:45;;;;;;;5.67;1.00;;;;;;;23.29;nan;101395.44;5036183;28;20182;-72
2021/09/30 13:34:10;;;;;;;4.40;1.00;;;;;;;23.74;nan;101404.72;5036427;28;20172;-73
2021/09/30 13:36:36;;;;;;;4.43;1.17;;;;;;;22.36;nan;101365.47;5035758;28;20180;-73
2021/09/30 13:39:01;;;;;;;3.80;1.07;;;;;;;21.84;nan;101406.44;5053909;28;20212;-72
2021/09/30 13:41:26;;;;;;;4.33;0.90;;;;;;;22.51;nan;101398.50;5035891;28;20553;-73
2021/09/30 13:43:52;;;;;;;8.27;1.13;;;;;;;22.32;nan;101391.22;5035743;28;20641;-72
2021/09/30 13:46:18;;;;;;;6.07;1.30;;;;;;;21.14;nan;101401.88;5051770;28;20290;-72
2021/09/30 13:48:43;;;;;;;4.17;1.00;;;;;;;20.72;nan;101373.94;5038534;28;20641;-74
2021/09/30 13:51:08;;;;;;;4.80;1.00;;;;;;;20.13;nan;101370.94;5023310;28;20180;-72
2021/09/30 13:53:34;;;;;;;5.20;1.20;;;;;;;20.13;nan;101379.91;5055512;28;20642;-72
2021/09/30 13:55:59;;;;;;;6.70;1.43;;;;;;;18.99;nan;101386.59;5039230;28;20188;-73
2021/09/30 13:58:24;;;;;;;3.20;0.90;;;;;;;18.01;nan;101377.06;5056590;28;20186;-74
2021/09/30 14:00:49;;;;;;;2.77;0.77;;;;;;;17.61;nan;101404.31;5056642;28;20183;-73
2021/09/30 14:03:15;;;;;;;4.50;1.33;;;;;;;17.89;nan;101421.22;5056716;28;20167;-75
2021/09/30 14:05:40;;;;;;;4.30;0.97;;;;;;;17.63;nan;101423.94;5037759;28;20214;-74
2021/09/30 14:08:05;;;;;;;4.13;0.90;;;;;;;17.73;nan;101427.72;5039079;28;20226;-74
2021/09/30 14:10:31;;;;;;;8.43;1.70;;;;;;;17.83;nan;101445.94;5038736;28;20604;-74
2021/09/30 14:12:56;;;;;;;2.33;1.03;;;;;;;17.46;nan;101430.56;5038587;28;20560;-75
2021/09/30 14:15:21;;;;;;;6.27;1.30;;;;;;;17.32;nan;101448.72;5038217;28;20225;-73
2021/09/30 14:17:47;;;;;;;4.43;1.60;;;;;;;17.08;nan;101435.13;5055632;28;20171;-72
2021/09/30 14:20:12;;;;;;;3.03;0.90;;;;;;;16.83;nan;101431.47;5038089;28;20597;-72
2021/09/30 14:22:39;;;;;;;10.87;1.43;;;;;;;17.24;nan;101449.28;5038273;28;20171;-72
2021/09/30 14:25:06;;;;;;;5.50;1.23;;;;;;;17.17;nan;101448.00;5037953;28;20192;-73
2021/09/30 14:27:32;;;;;;;5.27;1.40;;;;;;;17.23;nan;101452.94;5037784;28;20199;-72
2021/09/30 14:29:57;;;;;;;3.47;1.23;;;;;;;18.91;nan;101479.13;5055717;28;20224;-72